sensor_id;sensor_type;location;lat;lon;timestamp;pressure;altitude;pressure_sealevel;temperature;humidity
7433;BME280;32233;49.500;7.764;2023-04-29T00:01:01;98193.78;;;9.71;100.00
7433;BME280;32233;49.500;7.764;2023-04-29T00:03:28;98192.56;;;9.66;100.00
7433;BME280;32233;49.500;7.764;2023-04-29T00:05:58;98190.13;;;9.65;100.00
7433;BME280;32233;49.500;7.764;2023-04-29T00:08:25;98198.84;;;9.59;100.00
7433;BME280;32233;49.500;7.764;2023-04-29T00:10:52;98189.53;;;9.56;100.00
7433;BME280;32233;49.500;7.764;2023-04-29T00:13:18;98198.28;;;9.77;100.00
7433;BME280;32233;49.500;7.764;2023-04-29T00:15:45;98196.06;;;10.00;100.00
7433;BME280;32233;49.500;7.764;2023-04-29T00:18:11;98198.47;;;9.88;100.00
7433;BME280;32233;49.500;7.764;2023-04-29T00:20:39;98193.59;;;9.85;100.00
7433;BME280;32233;49.500;7.764;2023-04-29T00:23:05;98189.34;;;9.84;100.00
7433;BME280;32233;49.500;7.764;2023-04-29T00:25:32;98189.34;;;9.84;100.00
7433;BME280;32233;49.500;7.764;2023-04-29T00:27:59;98189.34;;;9.78;100.00
7433;BME280;32233;49.500;7.764;2023-04-29T00:30:27;98186.88;;;9.83;100.00
7433;BME280;32233;49.500;7.764;2023-04-29T00:32:54;98187.94;;;9.88;100.00
7433;BME280;32233;49.500;7.764;2023-04-29T00:35:21;98191.16;;;9.90;100.00
7433;BME280;32233;49.500;7.764;2023-04-29T00:37:48;98189.53;;;9.89;100.00
7433;BME280;32233;49.500;7.764;2023-04-29T00:40:14;98189.94;;;9.86;100.00
7433;BME280;32233;49.500;7.764;2023-04-29T00:42:42;98184.47;;;9.81;100.00
7433;BME280;32233;49.500;7.764;2023-04-29T00:45:09;98184.69;;;9.80;100.00
7433;BME280;32233;49.500;7.764;2023-04-29T00:47:39;98188.09;;;9.60;100.00
7433;BME280;32233;49.500;7.764;2023-04-29T00:50:06;98183.03;;;9.52;100.00
7433;BME280;32233;49.500;7.764;2023-04-29T00:52:33;98198.00;;;9.38;100.00
7433;BME280;32233;49.500;7.764;2023-04-29T00:55:01;98193.06;;;9.22;100.00
7433;BME280;32233;49.500;7.764;2023-04-29T00:57:28;98202.34;;;9.05;100.00
7433;BME280;32233;49.500;7.764;2023-04-29T00:59:56;98204.00;;;9.12;100.00
7433;BME280;32233;49.500;7.764;2023-04-29T01:02:24;98195.88;;;9.14;100.00
7433;BME280;32233;49.500;7.764;2023-04-29T01:04:51;98208.69;;;9.10;100.00
7433;BME280;32233;49.500;7.764;2023-04-29T01:07:30;98203.53;;;8.96;100.00
7433;BME280;32233;49.500;7.764;2023-04-29T01:10:08;98216.31;;;8.92;100.00
7433;BME280;32233;49.500;7.764;2023-04-29T01:15:04;98212.25;;;8.96;100.00
7433;BME280;32233;49.500;7.764;2023-04-29T01:17:43;98214.75;;;9.11;100.00
7433;BME280;32233;49.500;7.764;2023-04-29T01:20:13;98210.34;;;9.25;100.00
7433;BME280;32233;49.500;7.764;2023-04-29T01:22:40;98214.41;;;9.34;100.00
7433;BME280;32233;49.500;7.764;2023-04-29T01:25:07;98216.69;;;9.50;100.00
7433;BME280;32233;49.500;7.764;2023-04-29T01:28:20;98224.00;;;9.55;100.00
7433;BME280;32233;49.500;7.764;2023-04-29T01:31:07;98223.59;;;9.58;100.00
7433;BME280;32233;49.500;7.764;2023-04-29T01:38:54;98228.81;;;9.25;100.00
7433;BME280;32233;49.500;7.764;2023-04-29T01:41:44;98223.28;;;9.06;100.00
7433;BME280;32233;49.500;7.764;2023-04-29T01:44:23;98225.50;;;9.03;100.00
7433;BME280;32233;49.500;7.764;2023-04-29T01:46:52;98223.44;;;8.98;100.00
7433;BME280;32233;49.500;7.764;2023-04-29T01:49:26;98216.50;;;8.90;100.00
7433;BME280;32233;49.500;7.764;2023-04-29T01:51:54;98219.31;;;8.82;100.00
7433;BME280;32233;49.500;7.764;2023-04-29T01:54:21;98212.06;;;8.56;100.00
7433;BME280;32233;49.500;7.764;2023-04-29T01:56:48;98223.22;;;8.30;100.00
7433;BME280;32233;49.500;7.764;2023-04-29T01:59:22;98215.03;;;8.18;100.00
7433;BME280;32233;49.500;7.764;2023-04-29T02:02:04;98223.78;;;7.98;100.00
7433;BME280;32233;49.500;7.764;2023-04-29T02:04:31;98231.13;;;7.81;100.00
7433;BME280;32233;49.500;7.764;2023-04-29T02:07:01;98229.63;;;7.72;100.00
7433;BME280;32233;49.500;7.764;2023-04-29T02:09:29;98230.81;;;7.69;100.00
7433;BME280;32233;49.500;7.764;2023-04-29T02:12:04;98235.25;;;7.68;100.00
7433;BME280;32233;49.500;7.764;2023-04-29T02:14:31;98236.56;;;7.79;100.00
7433;BME280;32233;49.500;7.764;2023-04-29T02:17:02;98236.16;;;7.76;100.00
7433;BME280;32233;49.500;7.764;2023-04-29T02:19:29;98241.56;;;7.74;100.00
7433;BME280;32233;49.500;7.764;2023-04-29T02:21:55;98232.69;;;7.75;100.00
7433;BME280;32233;49.500;7.764;2023-04-29T02:24:24;98238.81;;;7.61;100.00
7433;BME280;32233;49.500;7.764;2023-04-29T02:26:51;98246.19;;;7.51;100.00
7433;BME280;32233;49.500;7.764;2023-04-29T02:29:17;98240.66;;;7.60;100.00
7433;BME280;32233;49.500;7.764;2023-04-29T02:31:44;98245.53;;;7.63;100.00
7433;BME280;32233;49.500;7.764;2023-04-29T02:34:10;98240.56;;;7.75;100.00
7433;BME280;32233;49.500;7.764;2023-04-29T02:36:37;98244.78;;;7.69;100.00
7433;BME280;32233;49.500;7.764;2023-04-29T02:39:03;98248.16;;;7.85;100.00
7433;BME280;32233;49.500;7.764;2023-04-29T02:41:30;98245.97;;;7.88;100.00
7433;BME280;32233;49.500;7.764;2023-04-29T02:43:56;98243.22;;;7.97;100.00
7433;BME280;32233;49.500;7.764;2023-04-29T02:46:23;98249.81;;;8.14;100.00
7433;BME280;32233;49.500;7.764;2023-04-29T02:48:51;98245.19;;;8.37;100.00
7433;BME280;32233;49.500;7.764;2023-04-29T02:51:18;98244.09;;;8.60;100.00
7433;BME280;32233;49.500;7.764;2023-04-29T02:53:45;98241.53;;;8.73;100.00
7433;BME280;32233;49.500;7.764;2023-04-29T02:56:12;98249.28;;;8.81;100.00
7433;BME280;32233;49.500;7.764;2023-04-29T02:58:38;98246.28;;;8.84;100.00
7433;BME280;32233;49.500;7.764;2023-04-29T03:01:05;98247.72;;;8.87;100.00
7433;BME280;32233;49.500;7.764;2023-04-29T03:03:32;98243.69;;;8.91;100.00
7433;BME280;32233;49.500;7.764;2023-04-29T03:05:59;98244.44;;;8.85;100.00
7433;BME280;32233;49.500;7.764;2023-04-29T03:08:26;98242.06;;;8.90;100.00
7433;BME280;32233;49.500;7.764;2023-04-29T03:10:53;98239.34;;;8.77;100.00
7433;BME280;32233;49.500;7.764;2023-04-29T03:13:19;98248.03;;;8.77;100.00
7433;BME280;32233;49.500;7.764;2023-04-29T03:15:46;98245.00;;;8.74;100.00
7433;BME280;32233;49.500;7.764;2023-04-29T03:18:13;98247.16;;;8.63;100.00
7433;BME280;32233;49.500;7.764;2023-04-29T03:20:39;98258.72;;;8.62;100.00
7433;BME280;32233;49.500;7.764;2023-04-29T03:23:06;98256.16;;;8.19;100.00
7433;BME280;32233;49.500;7.764;2023-04-29T03:25:32;98258.88;;;8.05;100.00
7433;BME280;32233;49.500;7.764;2023-04-29T03:27:59;98265.38;;;7.87;100.00
7433;BME280;32233;49.500;7.764;2023-04-29T03:30:25;98252.88;;;7.89;100.00
7433;BME280;32233;49.500;7.764;2023-04-29T03:32:55;98261.31;;;7.85;100.00
7433;BME280;32233;49.500;7.764;2023-04-29T03:35:22;98261.94;;;7.87;100.00
7433;BME280;32233;49.500;7.764;2023-04-29T03:38:14;98257.44;;;7.81;100.00
7433;BME280;32233;49.500;7.764;2023-04-29T03:40:42;98261.81;;;7.74;100.00
7433;BME280;32233;49.500;7.764;2023-04-29T03:43:10;98269.97;;;7.79;100.00
7433;BME280;32233;49.500;7.764;2023-04-29T03:45:37;98261.94;;;7.65;100.00
7433;BME280;32233;49.500;7.764;2023-04-29T03:48:05;98268.00;;;7.87;100.00
7433;BME280;32233;49.500;7.764;2023-04-29T03:50:31;98282.06;;;7.73;100.00
7433;BME280;32233;49.500;7.764;2023-04-29T03:52:58;98275.34;;;7.70;100.00
7433;BME280;32233;49.500;7.764;2023-04-29T03:55:28;98281.44;;;7.92;100.00
7433;BME280;32233;49.500;7.764;2023-04-29T03:57:54;98274.53;;;7.91;100.00
7433;BME280;32233;49.500;7.764;2023-04-29T04:00:21;98276.88;;;8.01;100.00
7433;BME280;32233;49.500;7.764;2023-04-29T04:02:52;98274.59;;;7.98;100.00
7433;BME280;32233;49.500;7.764;2023-04-29T04:05:19;98277.59;;;7.95;100.00
7433;BME280;32233;49.500;7.764;2023-04-29T04:07:52;98281.75;;;8.04;100.00
7433;BME280;32233;49.500;7.764;2023-04-29T04:10:30;98272.66;;;7.85;100.00
7433;BME280;32233;49.500;7.764;2023-04-29T04:12:59;98281.69;;;7.98;100.00
7433;BME280;32233;49.500;7.764;2023-04-29T04:15:25;98288.44;;;7.85;100.00
7433;BME280;32233;49.500;7.764;2023-04-29T04:17:52;98287.56;;;8.00;100.00
7433;BME280;32233;49.500;7.764;2023-04-29T04:20:19;98286.31;;;7.95;100.00
7433;BME280;32233;49.500;7.764;2023-04-29T04:22:47;98292.38;;;7.75;100.00
7433;BME280;32233;49.500;7.764;2023-04-29T04:25:19;98297.84;;;7.73;100.00
7433;BME280;32233;49.500;7.764;2023-04-29T04:27:45;98296.72;;;7.82;100.00
7433;BME280;32233;49.500;7.764;2023-04-29T04:30:22;98293.78;;;7.92;100.00
7433;BME280;32233;49.500;7.764;2023-04-29T04:32:48;98298.41;;;7.90;100.00
7433;BME280;32233;49.500;7.764;2023-04-29T04:35:15;98309.38;;;7.93;100.00
7433;BME280;32233;49.500;7.764;2023-04-29T04:37:42;98309.31;;;7.87;100.00
7433;BME280;32233;49.500;7.764;2023-04-29T04:40:10;98311.66;;;7.97;100.00
7433;BME280;32233;49.500;7.764;2023-04-29T04:42:53;98318.84;;;7.88;100.00
7433;BME280;32233;49.500;7.764;2023-04-29T04:45:21;98326.22;;;7.99;100.00
7433;BME280;32233;49.500;7.764;2023-04-29T04:47:49;98329.94;;;8.05;100.00
7433;BME280;32233;49.500;7.764;2023-04-29T04:50:20;98326.38;;;8.12;100.00
7433;BME280;32233;49.500;7.764;2023-04-29T04:52:49;98328.44;;;8.17;100.00
7433;BME280;32233;49.500;7.764;2023-04-29T04:55:35;98332.44;;;8.34;100.00
7433;BME280;32233;49.500;7.764;2023-04-29T04:58:02;98329.94;;;8.48;100.00
7433;BME280;32233;49.500;7.764;2023-04-29T05:00:29;98330.19;;;8.53;100.00
7433;BME280;32233;49.500;7.764;2023-04-29T05:02:56;98337.91;;;8.54;100.00
7433;BME280;32233;49.500;7.764;2023-04-29T05:05:23;98347.00;;;8.52;100.00
7433;BME280;32233;49.500;7.764;2023-04-29T05:07:50;98342.84;;;8.64;100.00
7433;BME280;32233;49.500;7.764;2023-04-29T05:10:21;98350.97;;;8.41;100.00
7433;BME280;32233;49.500;7.764;2023-04-29T05:12:53;98359.56;;;8.50;100.00
7433;BME280;32233;49.500;7.764;2023-04-29T05:15:20;98353.56;;;8.62;100.00
7433;BME280;32233;49.500;7.764;2023-04-29T05:17:49;98349.06;;;8.84;100.00
7433;BME280;32233;49.500;7.764;2023-04-29T05:20:16;98351.41;;;9.01;100.00
7433;BME280;32233;49.500;7.764;2023-04-29T05:22:43;98360.38;;;9.06;100.00
7433;BME280;32233;49.500;7.764;2023-04-29T05:25:09;98359.78;;;9.11;100.00
7433;BME280;32233;49.500;7.764;2023-04-29T05:27:36;98360.94;;;9.02;100.00
7433;BME280;32233;49.500;7.764;2023-04-29T05:30:05;98367.28;;;9.07;100.00
7433;BME280;32233;49.500;7.764;2023-04-29T05:32:32;98368.09;;;10.04;100.00
7433;BME280;32233;49.500;7.764;2023-04-29T05:34:59;98372.84;;;10.81;100.00
7433;BME280;32233;49.500;7.764;2023-04-29T05:37:27;98362.31;;;12.11;100.00
7433;BME280;32233;49.500;7.764;2023-04-29T05:40:12;98365.63;;;13.50;95.28
7433;BME280;32233;49.500;7.764;2023-04-29T05:42:42;98367.75;;;14.38;87.34
7433;BME280;32233;49.500;7.764;2023-04-29T05:45:11;98365.72;;;13.92;87.02
7433;BME280;32233;49.500;7.764;2023-04-29T05:47:38;98369.66;;;13.71;89.05
7433;BME280;32233;49.500;7.764;2023-04-29T05:50:05;98375.63;;;14.98;81.19
7433;BME280;32233;49.500;7.764;2023-04-29T05:52:32;98370.53;;;15.84;76.84
7433;BME280;32233;49.500;7.764;2023-04-29T05:54:58;98369.97;;;15.70;73.34
7433;BME280;32233;49.500;7.764;2023-04-29T05:57:25;98367.03;;;14.01;83.34
7433;BME280;32233;49.500;7.764;2023-04-29T05:59:52;98371.22;;;13.42;88.44
7433;BME280;32233;49.500;7.764;2023-04-29T06:02:20;98368.81;;;12.47;95.73
7433;BME280;32233;49.500;7.764;2023-04-29T06:04:47;98376.34;;;13.18;93.08
7433;BME280;32233;49.500;7.764;2023-04-29T06:07:26;98372.38;;;14.43;84.59
7433;BME280;32233;49.500;7.764;2023-04-29T06:09:57;98380.53;;;16.34;75.23
7433;BME280;32233;49.500;7.764;2023-04-29T06:12:25;98383.72;;;17.15;70.92
7433;BME280;32233;49.500;7.764;2023-04-29T06:14:51;98380.13;;;17.26;68.07
7433;BME280;32233;49.500;7.764;2023-04-29T06:17:19;98381.66;;;16.55;70.88
7433;BME280;32233;49.500;7.764;2023-04-29T06:19:45;98388.06;;;15.68;75.41
7433;BME280;32233;49.500;7.764;2023-04-29T06:22:12;98389.25;;;15.14;77.90
7433;BME280;32233;49.500;7.764;2023-04-29T06:24:44;98378.72;;;15.07;80.64
7433;BME280;32233;49.500;7.764;2023-04-29T06:27:17;98385.22;;;15.11;79.79
7433;BME280;32233;49.500;7.764;2023-04-29T06:29:44;98386.13;;;15.05;79.79
7433;BME280;32233;49.500;7.764;2023-04-29T06:32:11;98381.16;;;14.43;83.35
7433;BME280;32233;49.500;7.764;2023-04-29T06:34:39;98391.94;;;13.88;86.81
7433;BME280;32233;49.500;7.764;2023-04-29T06:37:22;98400.31;;;13.11;90.39
7433;BME280;32233;49.500;7.764;2023-04-29T06:39:55;98404.63;;;13.06;91.52
7433;BME280;32233;49.500;7.764;2023-04-29T06:42:40;98402.34;;;13.09;91.45
7433;BME280;32233;49.500;7.764;2023-04-29T06:45:30;98403.50;;;12.95;93.82
7433;BME280;32233;49.500;7.764;2023-04-29T06:48:21;98403.47;;;13.27;93.78
7433;BME280;32233;49.500;7.764;2023-04-29T06:50:57;98408.69;;;13.08;93.45
7433;BME280;32233;49.500;7.764;2023-04-29T06:53:23;98403.91;;;13.17;94.13
7433;BME280;32233;49.500;7.764;2023-04-29T06:55:50;98410.41;;;13.21;92.72
7433;BME280;32233;49.500;7.764;2023-04-29T06:58:19;98415.94;;;13.45;92.40
7433;BME280;32233;49.500;7.764;2023-04-29T07:00:46;98417.59;;;13.94;87.51
7433;BME280;32233;49.500;7.764;2023-04-29T07:03:14;98418.59;;;14.11;86.81
7433;BME280;32233;49.500;7.764;2023-04-29T07:05:41;98418.03;;;14.09;85.07
7433;BME280;32233;49.500;7.764;2023-04-29T07:08:11;98426.22;;;14.08;83.81
7433;BME280;32233;49.500;7.764;2023-04-29T07:10:38;98424.13;;;13.80;84.96
7433;BME280;32233;49.500;7.764;2023-04-29T07:13:04;98431.88;;;13.81;86.39
7433;BME280;32233;49.500;7.764;2023-04-29T07:15:35;98436.81;;;13.78;86.17
7433;BME280;32233;49.500;7.764;2023-04-29T07:18:03;98437.75;;;13.83;88.19
7433;BME280;32233;49.500;7.764;2023-04-29T07:20:31;98442.78;;;13.92;87.91
7433;BME280;32233;49.500;7.764;2023-04-29T07:22:58;98444.47;;;13.49;86.58
7433;BME280;32233;49.500;7.764;2023-04-29T07:25:27;98441.44;;;13.21;89.78
7433;BME280;32233;49.500;7.764;2023-04-29T07:27:54;98446.38;;;12.92;93.56
7433;BME280;32233;49.500;7.764;2023-04-29T07:30:23;98461.88;;;12.63;95.29
7433;BME280;32233;49.500;7.764;2023-04-29T07:32:50;98460.16;;;12.44;96.61
7433;BME280;32233;49.500;7.764;2023-04-29T07:35:17;98465.38;;;12.19;98.25
7433;BME280;32233;49.500;7.764;2023-04-29T07:37:44;98464.44;;;12.07;98.54
7433;BME280;32233;49.500;7.764;2023-04-29T07:40:11;98467.94;;;12.01;98.41
7433;BME280;32233;49.500;7.764;2023-04-29T07:42:38;98468.97;;;11.93;100.00
7433;BME280;32233;49.500;7.764;2023-04-29T07:45:06;98477.53;;;11.82;99.58
7433;BME280;32233;49.500;7.764;2023-04-29T07:47:33;98483.06;;;11.67;99.05
7433;BME280;32233;49.500;7.764;2023-04-29T07:49:59;98489.19;;;11.54;97.63
7433;BME280;32233;49.500;7.764;2023-04-29T07:52:26;98490.22;;;11.47;93.23
7433;BME280;32233;49.500;7.764;2023-04-29T07:54:53;98492.66;;;11.41;93.99
7433;BME280;32233;49.500;7.764;2023-04-29T07:57:21;98494.13;;;11.31;91.79
7433;BME280;32233;49.500;7.764;2023-04-29T07:59:54;98497.38;;;11.39;92.53
7433;BME280;32233;49.500;7.764;2023-04-29T08:02:20;98501.03;;;11.45;92.89
7433;BME280;32233;49.500;7.764;2023-04-29T08:04:48;98504.06;;;11.49;91.52
7433;BME280;32233;49.500;7.764;2023-04-29T08:07:16;98504.28;;;11.47;91.84
7433;BME280;32233;49.500;7.764;2023-04-29T08:09:43;98511.63;;;11.52;90.67
7433;BME280;32233;49.500;7.764;2023-04-29T08:12:09;98515.88;;;11.46;93.38
7433;BME280;32233;49.500;7.764;2023-04-29T08:14:39;98514.25;;;11.52;92.54
7433;BME280;32233;49.500;7.764;2023-04-29T08:17:05;98516.91;;;11.52;91.51
7433;BME280;32233;49.500;7.764;2023-04-29T08:19:32;98519.34;;;11.47;92.15
7433;BME280;32233;49.500;7.764;2023-04-29T08:21:59;98520.34;;;11.46;92.82
7433;BME280;32233;49.500;7.764;2023-04-29T08:24:26;98526.06;;;11.43;92.30
7433;BME280;32233;49.500;7.764;2023-04-29T08:26:54;98523.41;;;11.49;92.98
7433;BME280;32233;49.500;7.764;2023-04-29T08:29:20;98522.81;;;11.60;91.55
7433;BME280;32233;49.500;7.764;2023-04-29T08:31:47;98532.16;;;11.50;93.06
7433;BME280;32233;49.500;7.764;2023-04-29T08:34:13;98528.72;;;11.49;94.26
7433;BME280;32233;49.500;7.764;2023-04-29T08:36:40;98531.97;;;11.64;92.66
7433;BME280;32233;49.500;7.764;2023-04-29T08:39:06;98535.84;;;11.55;93.40
7433;BME280;32233;49.500;7.764;2023-04-29T08:41:38;98541.53;;;11.59;93.22
7433;BME280;32233;49.500;7.764;2023-04-29T08:44:05;98546.44;;;11.49;92.00
7433;BME280;32233;49.500;7.764;2023-04-29T08:46:32;98551.72;;;11.42;91.96
7433;BME280;32233;49.500;7.764;2023-04-29T08:49:01;98540.91;;;11.57;93.37
7433;BME280;32233;49.500;7.764;2023-04-29T08:51:29;98545.81;;;11.60;92.56
7433;BME280;32233;49.500;7.764;2023-04-29T08:53:57;98538.69;;;11.54;94.26
7433;BME280;32233;49.500;7.764;2023-04-29T08:56:24;98550.06;;;11.54;93.04
7433;BME280;32233;49.500;7.764;2023-04-29T08:58:53;98553.16;;;11.45;92.68
7433;BME280;32233;49.500;7.764;2023-04-29T09:01:26;98561.69;;;11.40;92.73
7433;BME280;32233;49.500;7.764;2023-04-29T09:04:08;98564.34;;;11.33;92.03
7433;BME280;32233;49.500;7.764;2023-04-29T09:06:35;98560.84;;;11.13;91.32
7433;BME280;32233;49.500;7.764;2023-04-29T09:09:02;98571.84;;;11.16;92.27
7433;BME280;32233;49.500;7.764;2023-04-29T09:11:29;98568.19;;;11.11;90.25
7433;BME280;32233;49.500;7.764;2023-04-29T09:13:59;98573.50;;;11.11;91.88
7433;BME280;32233;49.500;7.764;2023-04-29T09:16:30;98577.13;;;11.10;91.97
7433;BME280;32233;49.500;7.764;2023-04-29T09:18:56;98581.22;;;11.12;92.27
7433;BME280;32233;49.500;7.764;2023-04-29T09:21:28;98588.13;;;11.13;93.17
7433;BME280;32233;49.500;7.764;2023-04-29T09:23:56;98580.56;;;10.90;92.27
7433;BME280;32233;49.500;7.764;2023-04-29T09:26:23;98588.09;;;10.87;91.90
7433;BME280;32233;49.500;7.764;2023-04-29T09:31:31;98593.56;;;10.85;92.64
7433;BME280;32233;49.500;7.764;2023-04-29T09:33:58;98591.78;;;10.99;93.51
7433;BME280;32233;49.500;7.764;2023-04-29T09:36:48;98599.50;;;11.01;93.58
7433;BME280;32233;49.500;7.764;2023-04-29T09:39:19;98595.44;;;11.05;92.32
7433;BME280;32233;49.500;7.764;2023-04-29T09:44:15;98606.03;;;11.05;91.78
7433;BME280;32233;49.500;7.764;2023-04-29T09:46:42;98602.16;;;11.01;91.14
7433;BME280;32233;49.500;7.764;2023-04-29T09:49:30;98598.72;;;11.13;93.13
7433;BME280;32233;49.500;7.764;2023-04-29T09:51:59;98601.78;;;11.30;92.18
7433;BME280;32233;49.500;7.764;2023-04-29T09:54:28;98608.72;;;11.38;90.73
7433;BME280;32233;49.500;7.764;2023-04-29T09:56:56;98606.31;;;11.43;89.92
7433;BME280;32233;49.500;7.764;2023-04-29T09:59:24;98601.59;;;11.38;89.73
7433;BME280;32233;49.500;7.764;2023-04-29T10:01:52;98601.81;;;11.44;88.36
7433;BME280;32233;49.500;7.764;2023-04-29T10:04:21;98608.31;;;11.41;87.46
7433;BME280;32233;49.500;7.764;2023-04-29T10:06:49;98610.56;;;11.44;87.41
7433;BME280;32233;49.500;7.764;2023-04-29T10:09:18;98609.75;;;11.50;87.12
7433;BME280;32233;49.500;7.764;2023-04-29T10:11:46;98614.25;;;11.43;87.17
7433;BME280;32233;49.500;7.764;2023-04-29T10:14:21;98615.47;;;11.47;87.51
7433;BME280;32233;49.500;7.764;2023-04-29T10:16:49;98616.28;;;11.48;86.26
7433;BME280;32233;49.500;7.764;2023-04-29T10:19:25;98612.41;;;11.63;84.77
7433;BME280;32233;49.500;7.764;2023-04-29T10:21:54;98607.31;;;11.62;86.49
7433;BME280;32233;49.500;7.764;2023-04-29T10:24:24;98608.34;;;11.68;86.26
7433;BME280;32233;49.500;7.764;2023-04-29T10:26:52;98609.34;;;11.73;86.44
7433;BME280;32233;49.500;7.764;2023-04-29T10:29:21;98604.66;;;11.75;86.37
7433;BME280;32233;49.500;7.764;2023-04-29T10:31:51;98606.31;;;11.83;86.08
7433;BME280;32233;49.500;7.764;2023-04-29T10:34:18;98600.78;;;12.04;85.80
7433;BME280;32233;49.500;7.764;2023-04-29T10:36:45;98596.72;;;12.02;81.88
7433;BME280;32233;49.500;7.764;2023-04-29T10:39:21;98599.38;;;12.08;81.19
7433;BME280;32233;49.500;7.764;2023-04-29T10:41:51;98600.78;;;11.98;81.29
7433;BME280;32233;49.500;7.764;2023-04-29T10:44:19;98595.66;;;12.16;81.43
7433;BME280;32233;49.500;7.764;2023-04-29T10:46:45;98600.13;;;12.15;78.99
7433;BME280;32233;49.500;7.764;2023-04-29T10:49:12;98594.59;;;12.30;79.65
7433;BME280;32233;49.500;7.764;2023-04-29T10:51:43;98599.66;;;12.45;81.02
7433;BME280;32233;49.500;7.764;2023-04-29T10:54:15;98594.31;;;12.52;78.09
7433;BME280;32233;49.500;7.764;2023-04-29T10:56:49;98587.81;;;12.48;78.17
7433;BME280;32233;49.500;7.764;2023-04-29T10:59:20;98591.75;;;12.83;77.44
7433;BME280;32233;49.500;7.764;2023-04-29T11:01:53;98592.94;;;12.87;77.70
7433;BME280;32233;49.500;7.764;2023-04-29T11:04:21;98588.34;;;13.08;77.33
7433;BME280;32233;49.500;7.764;2023-04-29T11:06:53;98587.63;;;12.87;76.86
7433;BME280;32233;49.500;7.764;2023-04-29T11:09:29;98588.03;;;12.91;77.45
7433;BME280;32233;49.500;7.764;2023-04-29T11:12:02;98583.47;;;12.67;75.86
7433;BME280;32233;49.500;7.764;2023-04-29T11:14:49;98589.03;;;12.52;77.12
7433;BME280;32233;49.500;7.764;2023-04-29T11:17:17;98588.84;;;12.40;77.02
7433;BME280;32233;49.500;7.764;2023-04-29T11:19:50;98588.22;;;12.45;76.97
7433;BME280;32233;49.500;7.764;2023-04-29T11:22:28;98593.97;;;12.42;79.17
7433;BME280;32233;49.500;7.764;2023-04-29T11:25:06;98590.22;;;12.56;78.04
7433;BME280;32233;49.500;7.764;2023-04-29T11:27:48;98590.63;;;12.53;79.02
7433;BME280;32233;49.500;7.764;2023-04-29T11:30:44;98592.88;;;12.56;77.50
7433;BME280;32233;49.500;7.764;2023-04-29T11:33:31;98593.44;;;12.71;79.82
7433;BME280;32233;49.500;7.764;2023-04-29T11:36:08;98602.56;;;12.82;78.38
7433;BME280;32233;49.500;7.764;2023-04-29T11:38:43;98609.28;;;12.84;75.93
7433;BME280;32233;49.500;7.764;2023-04-29T11:41:27;98606.22;;;12.87;77.01
7433;BME280;32233;49.500;7.764;2023-04-29T11:44:05;98598.59;;;12.98;75.71
7433;BME280;32233;49.500;7.764;2023-04-29T11:46:43;98602.81;;;13.12;75.35
7433;BME280;32233;49.500;7.764;2023-04-29T11:49:15;98600.03;;;12.94;74.95
7433;BME280;32233;49.500;7.764;2023-04-29T11:51:42;98598.47;;;13.18;76.94
7433;BME280;32233;49.500;7.764;2023-04-29T11:54:08;98604.00;;;13.23;76.94
7433;BME280;32233;49.500;7.764;2023-04-29T11:56:36;98603.78;;;13.18;75.39
7433;BME280;32233;49.500;7.764;2023-04-29T11:59:03;98604.59;;;13.25;76.55
7433;BME280;32233;49.500;7.764;2023-04-29T12:01:34;98610.50;;;13.27;75.97
7433;BME280;32233;49.500;7.764;2023-04-29T12:04:01;98618.91;;;13.17;75.73
7433;BME280;32233;49.500;7.764;2023-04-29T12:06:29;98617.03;;;13.18;76.15
7433;BME280;32233;49.500;7.764;2023-04-29T12:09:00;98614.63;;;13.16;76.17
7433;BME280;32233;49.500;7.764;2023-04-29T12:11:27;98615.16;;;12.93;76.37
7433;BME280;32233;49.500;7.764;2023-04-29T12:13:55;98623.34;;;12.85;78.60
7433;BME280;32233;49.500;7.764;2023-04-29T12:16:22;98622.22;;;12.68;80.43
7433;BME280;32233;49.500;7.764;2023-04-29T12:18:52;98619.16;;;12.64;81.42
7433;BME280;32233;49.500;7.764;2023-04-29T12:21:21;98617.66;;;12.81;82.30
7433;BME280;32233;49.500;7.764;2023-04-29T12:23:47;98619.06;;;12.91;80.58
7433;BME280;32233;49.500;7.764;2023-04-29T12:26:14;98621.94;;;12.82;81.95
7433;BME280;32233;49.500;7.764;2023-04-29T12:28:42;98618.34;;;12.63;81.10
7433;BME280;32233;49.500;7.764;2023-04-29T12:31:09;98618.81;;;12.54;79.84
7433;BME280;32233;49.500;7.764;2023-04-29T12:33:41;98625.84;;;12.73;79.62
7433;BME280;32233;49.500;7.764;2023-04-29T12:36:16;98621.78;;;12.71;79.47
7433;BME280;32233;49.500;7.764;2023-04-29T12:38:43;98621.25;;;12.55;78.73
7433;BME280;32233;49.500;7.764;2023-04-29T12:41:11;98632.47;;;12.44;81.30
7433;BME280;32233;49.500;7.764;2023-04-29T12:43:40;98628.78;;;12.58;80.43
7433;BME280;32233;49.500;7.764;2023-04-29T12:46:08;98635.56;;;12.41;80.97
7433;BME280;32233;49.500;7.764;2023-04-29T12:48:36;98633.69;;;12.48;81.48
7433;BME280;32233;49.500;7.764;2023-04-29T12:51:09;98638.03;;;12.29;82.33
7433;BME280;32233;49.500;7.764;2023-04-29T12:53:37;98639.88;;;12.22;82.37
7433;BME280;32233;49.500;7.764;2023-04-29T12:56:05;98644.38;;;12.22;83.91
7433;BME280;32233;49.500;7.764;2023-04-29T12:58:32;98657.44;;;12.10;83.00
7433;BME280;32233;49.500;7.764;2023-04-29T13:01:00;98657.03;;;12.13;84.76
7433;BME280;32233;49.500;7.764;2023-04-29T13:03:26;98654.56;;;12.11;83.84
7433;BME280;32233;49.500;7.764;2023-04-29T13:05:54;98661.31;;;12.01;83.97
7433;BME280;32233;49.500;7.764;2023-04-29T13:08:20;98658.84;;;11.99;85.49
7433;BME280;32233;49.500;7.764;2023-04-29T13:10:47;98652.13;;;11.83;86.69
7433;BME280;32233;49.500;7.764;2023-04-29T13:13:14;98658.88;;;11.93;86.93
7433;BME280;32233;49.500;7.764;2023-04-29T13:15:41;98660.69;;;12.12;83.97
7433;BME280;32233;49.500;7.764;2023-04-29T13:18:08;98654.56;;;12.25;84.64
7433;BME280;32233;49.500;7.764;2023-04-29T13:20:34;98652.72;;;12.25;83.13
7433;BME280;32233;49.500;7.764;2023-04-29T13:23:07;98655.38;;;12.19;82.94
7433;BME280;32233;49.500;7.764;2023-04-29T13:25:33;98659.84;;;12.31;82.22
7433;BME280;32233;49.500;7.764;2023-04-29T13:28:00;98649.78;;;12.60;82.89
7433;BME280;32233;49.500;7.764;2023-04-29T13:30:27;98658.34;;;12.55;82.10
7433;BME280;32233;49.500;7.764;2023-04-29T13:32:53;98660.31;;;12.80;78.50
7433;BME280;32233;49.500;7.764;2023-04-29T13:35:31;98655.03;;;12.73;78.92